sensor_id;sensor_type;location;lat;lon;timestamp;pressure;altitude;pressure_sealevel;temperature;humidity
57628;BME280;43451;49.060;10.616;2022-07-04T00:00:43;96848.22;;;17.47;93.51
57628;BME280;43451;49.060;10.616;2022-07-04T00:03:09;96854.41;;;17.51;93.61
57628;BME280;43451;49.060;10.616;2022-07-04T00:05:34;96855.22;;;17.64;92.83
57628;BME280;43451;49.060;10.616;2022-07-04T00:08:00;96861.16;;;17.76;92.26
57628;BME280;43451;49.060;10.616;2022-07-04T00:10:25;96865.09;;;17.62;92.97
57628;BME280;43451;49.060;10.616;2022-07-04T00:12:51;96874.09;;;17.62;93.11
57628;BME280;43451;49.060;10.616;2022-07-04T00:15:17;96882.34;;;17.62;93.40
57628;BME280;43451;49.060;10.616;2022-07-04T00:17:43;96873.56;;;17.68;93.27
57628;BME280;43451;49.060;10.616;2022-07-04T00:20:10;96869.84;;;17.74;93.10
57628;BME280;43451;49.060;10.616;2022-07-04T00:22:36;96871.84;;;17.74;93.54
57628;BME280;43451;49.060;10.616;2022-07-04T00:25:02;96863.25;;;17.72;93.60
57628;BME280;43451;49.060;10.616;2022-07-04T00:27:28;96867.09;;;17.74;93.40
57628;BME280;43451;49.060;10.616;2022-07-04T00:29:53;96871.00;;;17.77;93.17
57628;BME280;43451;49.060;10.616;2022-07-04T00:32:19;96867.38;;;17.80;93.18
57628;BME280;43451;49.060;10.616;2022-07-04T00:34:44;96853.19;;;17.81;93.34
57628;BME280;43451;49.060;10.616;2022-07-04T00:37:10;96857.94;;;17.94;92.70
57628;BME280;43451;49.060;10.616;2022-07-04T00:39:35;96849.28;;;17.95;92.46
57628;BME280;43451;49.060;10.616;2022-07-04T00:42:02;96843.78;;;17.95;92.48
57628;BME280;43451;49.060;10.616;2022-07-04T00:44:27;96832.88;;;17.92;92.49
57628;BME280;43451;49.060;10.616;2022-07-04T00:46:53;96830.22;;;17.88;92.45
57628;BME280;43451;49.060;10.616;2022-07-04T00:49:18;96826.47;;;17.82;92.16
57628;BME280;43451;49.060;10.616;2022-07-04T00:51:45;96821.44;;;17.80;92.69
57628;BME280;43451;49.060;10.616;2022-07-04T00:54:15;96830.78;;;17.83;92.93
57628;BME280;43451;49.060;10.616;2022-07-04T00:56:44;96832.41;;;17.80;93.00
57628;BME280;43451;49.060;10.616;2022-07-04T00:59:10;96833.38;;;17.74;93.38
57628;BME280;43451;49.060;10.616;2022-07-04T01:01:35;96823.91;;;17.75;93.59
57628;BME280;43451;49.060;10.616;2022-07-04T01:04:03;96814.91;;;17.74;93.95
57628;BME280;43451;49.060;10.616;2022-07-04T01:06:28;96809.75;;;17.76;93.91
57628;BME280;43451;49.060;10.616;2022-07-04T01:08:54;96806.66;;;17.74;93.53
57628;BME280;43451;49.060;10.616;2022-07-04T01:11:20;96816.22;;;17.70;93.43
57628;BME280;43451;49.060;10.616;2022-07-04T01:13:46;96826.09;;;17.67;93.79
57628;BME280;43451;49.060;10.616;2022-07-04T01:16:11;96816.41;;;17.62;93.97
57628;BME280;43451;49.060;10.616;2022-07-04T01:18:38;96808.59;;;17.61;94.13
57628;BME280;43451;49.060;10.616;2022-07-04T01:21:04;96812.31;;;17.54;95.35
57628;BME280;43451;49.060;10.616;2022-07-04T01:23:30;96808.22;;;17.46;95.51
57628;BME280;43451;49.060;10.616;2022-07-04T01:25:56;96804.25;;;17.47;95.48
57628;BME280;43451;49.060;10.616;2022-07-04T01:28:23;96805.13;;;17.44;95.83
57628;BME280;43451;49.060;10.616;2022-07-04T01:30:49;96810.19;;;17.46;95.10
57628;BME280;43451;49.060;10.616;2022-07-04T01:33:14;96817.44;;;17.39;94.82
57628;BME280;43451;49.060;10.616;2022-07-04T01:35:42;96815.31;;;17.31;95.51
57628;BME280;43451;49.060;10.616;2022-07-04T01:38:08;96820.63;;;17.38;95.45
57628;BME280;43451;49.060;10.616;2022-07-04T01:40:33;96826.03;;;17.25;96.67
57628;BME280;43451;49.060;10.616;2022-07-04T01:42:59;96838.09;;;17.44;95.33
57628;BME280;43451;49.060;10.616;2022-07-04T01:45:24;96836.75;;;17.36;95.57
57628;BME280;43451;49.060;10.616;2022-07-04T01:47:50;96821.25;;;17.29;95.76
57628;BME280;43451;49.060;10.616;2022-07-04T01:50:16;96828.97;;;17.47;94.31
57628;BME280;43451;49.060;10.616;2022-07-04T01:52:42;96825.97;;;17.58;92.33
57628;BME280;43451;49.060;10.616;2022-07-04T01:55:09;96824.34;;;17.44;93.58
57628;BME280;43451;49.060;10.616;2022-07-04T01:57:35;96820.28;;;17.36;94.44
57628;BME280;43451;49.060;10.616;2022-07-04T02:00:00;96824.41;;;17.28;94.69
57628;BME280;43451;49.060;10.616;2022-07-04T02:02:44;96833.72;;;17.17;92.80
57628;BME280;43451;49.060;10.616;2022-07-04T02:05:10;96824.09;;;17.09;93.42
57628;BME280;43451;49.060;10.616;2022-07-04T02:07:35;96831.06;;;17.14;93.55
57628;BME280;43451;49.060;10.616;2022-07-04T02:10:02;96830.66;;;16.99;94.80
57628;BME280;43451;49.060;10.616;2022-07-04T02:12:27;96836.31;;;16.92;95.14
57628;BME280;43451;49.060;10.616;2022-07-04T02:17:39;96833.31;;;16.86;94.77
57628;BME280;43451;49.060;10.616;2022-07-04T02:20:05;96832.72;;;16.79;95.36
57628;BME280;43451;49.060;10.616;2022-07-04T02:22:33;96834.84;;;16.71;94.65
57628;BME280;43451;49.060;10.616;2022-07-04T02:24:58;96832.63;;;16.66;93.59
57628;BME280;43451;49.060;10.616;2022-07-04T02:27:24;96843.78;;;16.59;93.79
57628;BME280;43451;49.060;10.616;2022-07-04T02:29:49;96846.16;;;16.57;94.14
57628;BME280;43451;49.060;10.616;2022-07-04T02:32:15;96854.47;;;16.53;94.22
57628;BME280;43451;49.060;10.616;2022-07-04T02:34:40;96850.69;;;16.47;94.85
57628;BME280;43451;49.060;10.616;2022-07-04T02:37:06;96850.88;;;16.40;95.26
57628;BME280;43451;49.060;10.616;2022-07-04T02:39:32;96862.94;;;16.42;95.72
57628;BME280;43451;49.060;10.616;2022-07-04T02:41:57;96878.09;;;16.31;96.67
57628;BME280;43451;49.060;10.616;2022-07-04T02:44:23;96881.34;;;16.25;97.21
57628;BME280;43451;49.060;10.616;2022-07-04T02:46:49;96876.41;;;16.37;96.80
57628;BME280;43451;49.060;10.616;2022-07-04T02:49:14;96881.81;;;16.40;96.68
57628;BME280;43451;49.060;10.616;2022-07-04T02:51:40;96882.22;;;16.39;97.08
57628;BME280;43451;49.060;10.616;2022-07-04T02:54:05;96881.44;;;16.38;97.30
57628;BME280;43451;49.060;10.616;2022-07-04T02:56:31;96876.13;;;16.31;98.49
57628;BME280;43451;49.060;10.616;2022-07-04T02:58:56;96873.78;;;16.30;98.61
57628;BME280;43451;49.060;10.616;2022-07-04T03:01:22;96880.91;;;16.27;98.99
57628;BME280;43451;49.060;10.616;2022-07-04T03:03:48;96884.06;;;16.25;99.48
57628;BME280;43451;49.060;10.616;2022-07-04T03:06:14;96882.38;;;16.32;98.95
57628;BME280;43451;49.060;10.616;2022-07-04T03:08:39;96875.06;;;16.25;99.58
57628;BME280;43451;49.060;10.616;2022-07-04T03:11:05;96884.56;;;16.20;100.00
57628;BME280;43451;49.060;10.616;2022-07-04T03:13:31;96902.56;;;16.21;100.00
57628;BME280;43451;49.060;10.616;2022-07-04T03:15:57;96902.88;;;16.43;98.54
57628;BME280;43451;49.060;10.616;2022-07-04T03:18:22;96906.56;;;16.37;98.84
57628;BME280;43451;49.060;10.616;2022-07-04T03:20:48;96904.31;;;16.32;98.75
57628;BME280;43451;49.060;10.616;2022-07-04T03:23:14;96901.94;;;16.34;98.95
57628;BME280;43451;49.060;10.616;2022-07-04T03:25:40;96907.59;;;16.43;98.47
57628;BME280;43451;49.060;10.616;2022-07-04T03:28:06;96909.16;;;16.44;98.48
57628;BME280;43451;49.060;10.616;2022-07-04T03:30:32;96912.25;;;16.46;98.31
57628;BME280;43451;49.060;10.616;2022-07-04T03:32:58;96913.41;;;16.45;98.73
57628;BME280;43451;49.060;10.616;2022-07-04T03:35:24;96908.03;;;16.41;98.34
57628;BME280;43451;49.060;10.616;2022-07-04T03:37:49;96914.09;;;16.49;97.81
57628;BME280;43451;49.060;10.616;2022-07-04T03:40:16;96926.63;;;16.50;97.12
57628;BME280;43451;49.060;10.616;2022-07-04T03:42:42;96928.25;;;16.47;97.59
57628;BME280;43451;49.060;10.616;2022-07-04T03:45:08;96929.94;;;16.41;97.28
57628;BME280;43451;49.060;10.616;2022-07-04T03:47:33;96928.75;;;16.42;97.52
57628;BME280;43451;49.060;10.616;2022-07-04T03:49:59;96935.16;;;16.36;98.30
57628;BME280;43451;49.060;10.616;2022-07-04T03:52:25;96935.88;;;16.40;98.25
57628;BME280;43451;49.060;10.616;2022-07-04T03:54:51;96933.50;;;16.58;97.13
57628;BME280;43451;49.060;10.616;2022-07-04T03:57:16;96940.00;;;16.48;98.21
57628;BME280;43451;49.060;10.616;2022-07-04T03:59:42;96947.72;;;16.53;98.16
57628;BME280;43451;49.060;10.616;2022-07-04T04:02:07;96947.00;;;16.49;98.43
57628;BME280;43451;49.060;10.616;2022-07-04T04:04:33;96955.25;;;16.49;99.02
57628;BME280;43451;49.060;10.616;2022-07-04T04:07:17;96963.66;;;16.58;98.68
57628;BME280;43451;49.060;10.616;2022-07-04T04:09:42;96964.72;;;16.64;98.77
57628;BME280;43451;49.060;10.616;2022-07-04T04:12:08;96964.38;;;16.62;98.31
57628;BME280;43451;49.060;10.616;2022-07-04T04:14:33;96972.94;;;16.64;98.12
57628;BME280;43451;49.060;10.616;2022-07-04T04:16:59;96976.03;;;16.66;98.39
57628;BME280;43451;49.060;10.616;2022-07-04T04:19:24;96974.34;;;16.73;98.15
57628;BME280;43451;49.060;10.616;2022-07-04T04:21:50;96980.91;;;16.79;98.28
57628;BME280;43451;49.060;10.616;2022-07-04T04:24:15;96987.56;;;16.78;97.89
57628;BME280;43451;49.060;10.616;2022-07-04T04:26:41;96981.59;;;16.83;98.69
57628;BME280;43451;49.060;10.616;2022-07-04T04:29:06;96983.06;;;16.87;98.48
57628;BME280;43451;49.060;10.616;2022-07-04T04:31:31;96990.00;;;16.92;98.51
57628;BME280;43451;49.060;10.616;2022-07-04T04:33:57;96993.13;;;16.94;98.74
57628;BME280;43451;49.060;10.616;2022-07-04T04:36:23;96999.28;;;16.98;99.19
57628;BME280;43451;49.060;10.616;2022-07-04T04:38:49;96986.44;;;17.11;98.62
57628;BME280;43451;49.060;10.616;2022-07-04T04:41:14;96986.78;;;17.13;97.99
57628;BME280;43451;49.060;10.616;2022-07-04T04:43:41;96989.53;;;17.13;95.45
57628;BME280;43451;49.060;10.616;2022-07-04T04:46:07;96979.75;;;17.29;93.36
57628;BME280;43451;49.060;10.616;2022-07-04T04:48:32;96973.22;;;17.23;93.85
57628;BME280;43451;49.060;10.616;2022-07-04T04:50:58;96985.41;;;17.22;95.24
57628;BME280;43451;49.060;10.616;2022-07-04T04:53:23;96987.28;;;17.25;95.55
57628;BME280;43451;49.060;10.616;2022-07-04T04:55:51;96986.59;;;17.37;92.30
57628;BME280;43451;49.060;10.616;2022-07-04T04:58:17;96992.78;;;17.41;93.18
57628;BME280;43451;49.060;10.616;2022-07-04T05:00:43;96983.53;;;17.35;93.04
57628;BME280;43451;49.060;10.616;2022-07-04T05:03:08;96989.03;;;17.35;93.85
57628;BME280;43451;49.060;10.616;2022-07-04T05:05:34;96979.94;;;17.38;93.91
57628;BME280;43451;49.060;10.616;2022-07-04T05:07:59;96980.06;;;17.47;94.10
57628;BME280;43451;49.060;10.616;2022-07-04T05:10:26;96992.63;;;17.48;94.00
57628;BME280;43451;49.060;10.616;2022-07-04T05:12:51;96978.78;;;17.52;91.94
57628;BME280;43451;49.060;10.616;2022-07-04T05:15:17;96984.00;;;17.79;87.75
57628;BME280;43451;49.060;10.616;2022-07-04T05:17:42;96988.38;;;17.76;88.61
57628;BME280;43451;49.060;10.616;2022-07-04T05:20:08;96984.06;;;17.75;91.49
57628;BME280;43451;49.060;10.616;2022-07-04T05:22:34;96982.97;;;17.89;90.12
57628;BME280;43451;49.060;10.616;2022-07-04T05:25:00;96980.75;;;17.84;89.25
57628;BME280;43451;49.060;10.616;2022-07-04T05:27:25;96984.84;;;17.92;91.65
57628;BME280;43451;49.060;10.616;2022-07-04T05:29:51;96992.84;;;18.16;85.38
57628;BME280;43451;49.060;10.616;2022-07-04T05:32:17;97002.94;;;18.06;85.44
57628;BME280;43451;49.060;10.616;2022-07-04T05:34:42;97001.47;;;18.01;86.76
57628;BME280;43451;49.060;10.616;2022-07-04T05:37:08;97010.00;;;18.20;82.80
57628;BME280;43451;49.060;10.616;2022-07-04T05:39:33;97011.34;;;18.15;85.22
57628;BME280;43451;49.060;10.616;2022-07-04T05:41:59;97006.09;;;18.21;85.29
57628;BME280;43451;49.060;10.616;2022-07-04T05:44:24;97004.00;;;18.25;83.76
57628;BME280;43451;49.060;10.616;2022-07-04T05:46:50;97013.06;;;18.38;83.84
57628;BME280;43451;49.060;10.616;2022-07-04T05:49:15;97017.47;;;18.48;85.71
57628;BME280;43451;49.060;10.616;2022-07-04T05:51:41;97014.97;;;18.54;84.21
57628;BME280;43451;49.060;10.616;2022-07-04T05:54:06;97021.13;;;18.58;81.46
57628;BME280;43451;49.060;10.616;2022-07-04T05:56:32;97024.41;;;18.82;81.78
57628;BME280;43451;49.060;10.616;2022-07-04T05:58:57;97016.50;;;19.10;76.69
57628;BME280;43451;49.060;10.616;2022-07-04T06:01:22;97012.06;;;19.25;75.62
57628;BME280;43451;49.060;10.616;2022-07-04T06:03:49;97021.88;;;19.39;79.27
57628;BME280;43451;49.060;10.616;2022-07-04T06:06:14;97020.22;;;19.67;76.37
57628;BME280;43451;49.060;10.616;2022-07-04T06:08:41;97016.66;;;20.01;73.55
57628;BME280;43451;49.060;10.616;2022-07-04T06:11:07;97016.19;;;20.37;66.97
57628;BME280;43451;49.060;10.616;2022-07-04T06:13:32;97014.03;;;20.54;68.72
57628;BME280;43451;49.060;10.616;2022-07-04T06:15:57;97011.28;;;20.85;69.03
57628;BME280;43451;49.060;10.616;2022-07-04T06:18:23;97029.09;;;21.16;66.93
57628;BME280;43451;49.060;10.616;2022-07-04T06:20:49;97026.50;;;21.21;63.96
57628;BME280;43451;49.060;10.616;2022-07-04T06:23:14;97020.38;;;21.26;64.27
57628;BME280;43451;49.060;10.616;2022-07-04T06:25:40;97027.63;;;21.02;66.46
57628;BME280;43451;49.060;10.616;2022-07-04T06:28:06;97017.25;;;20.75;68.40
57628;BME280;43451;49.060;10.616;2022-07-04T06:30:31;97020.31;;;20.55;67.58
57628;BME280;43451;49.060;10.616;2022-07-04T06:32:57;97016.50;;;20.52;65.12
57628;BME280;43451;49.060;10.616;2022-07-04T06:35:31;97013.16;;;20.23;69.35
57628;BME280;43451;49.060;10.616;2022-07-04T06:38:16;97006.00;;;20.25;66.63
57628;BME280;43451;49.060;10.616;2022-07-04T06:40:41;97014.13;;;20.07;70.22
57628;BME280;43451;49.060;10.616;2022-07-04T06:43:07;97012.34;;;20.13;68.91
57628;BME280;43451;49.060;10.616;2022-07-04T06:45:33;97019.84;;;20.34;67.19
57628;BME280;43451;49.060;10.616;2022-07-04T06:48:00;97022.94;;;20.36;68.82
57628;BME280;43451;49.060;10.616;2022-07-04T06:50:26;97037.66;;;20.33;67.69
57628;BME280;43451;49.060;10.616;2022-07-04T06:52:51;97036.75;;;20.36;66.83
57628;BME280;43451;49.060;10.616;2022-07-04T06:55:17;97035.78;;;20.30;67.21
57628;BME280;43451;49.060;10.616;2022-07-04T06:57:43;97034.22;;;20.29;70.22
57628;BME280;43451;49.060;10.616;2022-07-04T07:00:09;97035.66;;;20.34;68.41
57628;BME280;43451;49.060;10.616;2022-07-04T07:02:35;97037.94;;;20.35;70.66
57628;BME280;43451;49.060;10.616;2022-07-04T07:05:01;97042.13;;;20.40;70.10
57628;BME280;43451;49.060;10.616;2022-07-04T07:07:27;97030.97;;;20.44;70.70
57628;BME280;43451;49.060;10.616;2022-07-04T07:09:54;97034.94;;;20.64;69.65
57628;BME280;43451;49.060;10.616;2022-07-04T07:12:21;97032.66;;;20.63;67.94
57628;BME280;43451;49.060;10.616;2022-07-04T07:14:49;97027.47;;;20.65;69.40
57628;BME280;43451;49.060;10.616;2022-07-04T07:17:15;97026.69;;;20.96;65.43
57628;BME280;43451;49.060;10.616;2022-07-04T07:19:42;97025.00;;;20.98;67.03
57628;BME280;43451;49.060;10.616;2022-07-04T07:22:11;97010.53;;;21.16;63.85
57628;BME280;43451;49.060;10.616;2022-07-04T07:24:37;97018.16;;;21.12;63.75
57628;BME280;43451;49.060;10.616;2022-07-04T07:27:03;97019.22;;;21.05;66.90
57628;BME280;43451;49.060;10.616;2022-07-04T07:29:29;97013.44;;;21.13;67.68
57628;BME280;43451;49.060;10.616;2022-07-04T07:31:55;97007.91;;;21.13;66.07
57628;BME280;43451;49.060;10.616;2022-07-04T07:34:21;97004.75;;;21.32;66.52
57628;BME280;43451;49.060;10.616;2022-07-04T07:36:47;97017.28;;;21.24;66.63
57628;BME280;43451;49.060;10.616;2022-07-04T07:39:12;97013.75;;;21.24;66.00
57628;BME280;43451;49.060;10.616;2022-07-04T07:41:38;97005.97;;;21.31;64.51
57628;BME280;43451;49.060;10.616;2022-07-04T07:44:03;97007.03;;;21.34;66.78
57628;BME280;43451;49.060;10.616;2022-07-04T07:46:29;97016.00;;;21.38;64.74
57628;BME280;43451;49.060;10.616;2022-07-04T07:48:54;97011.03;;;21.33;62.68
57628;BME280;43451;49.060;10.616;2022-07-04T07:51:20;97000.84;;;21.70;61.56
57628;BME280;43451;49.060;10.616;2022-07-04T07:53:45;97006.53;;;21.67;64.97
57628;BME280;43451;49.060;10.616;2022-07-04T07:56:11;97002.38;;;21.71;61.20
57628;BME280;43451;49.060;10.616;2022-07-04T07:58:36;96999.34;;;21.69;62.62
57628;BME280;43451;49.060;10.616;2022-07-04T08:01:01;96996.88;;;21.81;63.10
57628;BME280;43451;49.060;10.616;2022-07-04T08:03:28;97008.06;;;21.68;61.33
57628;BME280;43451;49.060;10.616;2022-07-04T08:06:13;97000.09;;;21.70;64.67
57628;BME280;43451;49.060;10.616;2022-07-04T08:08:40;96994.28;;;21.86;60.77
57628;BME280;43451;49.060;10.616;2022-07-04T08:11:05;96998.56;;;22.06;63.24
57628;BME280;43451;49.060;10.616;2022-07-04T08:13:31;97007.34;;;22.22;59.71
57628;BME280;43451;49.060;10.616;2022-07-04T08:15:57;97003.78;;;22.13;63.19
57628;BME280;43451;49.060;10.616;2022-07-04T08:18:22;97001.78;;;22.04;63.73
57628;BME280;43451;49.060;10.616;2022-07-04T08:20:49;96994.16;;;22.27;59.67
57628;BME280;43451;49.060;10.616;2022-07-04T08:23:15;96994.75;;;22.40;60.00
57628;BME280;43451;49.060;10.616;2022-07-04T08:25:40;96986.72;;;22.51;57.92
57628;BME280;43451;49.060;10.616;2022-07-04T08:28:06;96989.50;;;22.33;57.04
57628;BME280;43451;49.060;10.616;2022-07-04T08:30:32;96988.91;;;22.38;59.20
57628;BME280;43451;49.060;10.616;2022-07-04T08:32:57;96982.75;;;22.43;58.56
57628;BME280;43451;49.060;10.616;2022-07-04T08:35:23;96985.63;;;22.48;58.00
57628;BME280;43451;49.060;10.616;2022-07-04T08:37:48;96986.22;;;22.71;57.76
57628;BME280;43451;49.060;10.616;2022-07-04T08:40:22;96986.03;;;22.84;57.79
57628;BME280;43451;49.060;10.616;2022-07-04T08:42:49;96989.97;;;22.92;55.61
57628;BME280;43451;49.060;10.616;2022-07-04T08:45:16;96978.13;;;22.91;56.85
57628;BME280;43451;49.060;10.616;2022-07-04T08:47:43;96972.28;;;22.99;57.34
57628;BME280;43451;49.060;10.616;2022-07-04T08:50:12;96974.00;;;22.87;59.59
57628;BME280;43451;49.060;10.616;2022-07-04T08:52:43;96977.06;;;22.98;58.51
57628;BME280;43451;49.060;10.616;2022-07-04T08:55:13;96969.66;;;23.04;60.18
57628;BME280;43451;49.060;10.616;2022-07-04T08:57:57;96977.22;;;23.28;55.98
57628;BME280;43451;49.060;10.616;2022-07-04T09:00:42;96984.28;;;23.38;55.89
57628;BME280;43451;49.060;10.616;2022-07-04T09:03:09;96986.22;;;23.47;58.08
57628;BME280;43451;49.060;10.616;2022-07-04T09:05:34;96982.44;;;23.35;56.40
57628;BME280;43451;49.060;10.616;2022-07-04T09:08:01;96995.47;;;23.44;54.01
57628;BME280;43451;49.060;10.616;2022-07-04T09:10:28;96999.09;;;23.35;55.04
57628;BME280;43451;49.060;10.616;2022-07-04T09:12:54;96992.09;;;23.15;55.52
57628;BME280;43451;49.060;10.616;2022-07-04T09:15:19;96999.50;;;23.09;55.53
57628;BME280;43451;49.060;10.616;2022-07-04T09:17:45;97006.91;;;23.03;55.69
57628;BME280;43451;49.060;10.616;2022-07-04T09:20:15;97001.38;;;23.03;56.01
57628;BME280;43451;49.060;10.616;2022-07-04T09:22:42;97001.63;;;23.14;54.76
57628;BME280;43451;49.060;10.616;2022-07-04T09:25:07;96995.75;;;23.22;55.04
57628;BME280;43451;49.060;10.616;2022-07-04T09:27:38;96987.63;;;23.09;55.36
57628;BME280;43451;49.060;10.616;2022-07-04T09:30:10;96993.78;;;23.13;56.60
57628;BME280;43451;49.060;10.616;2022-07-04T09:32:43;97006.59;;;23.10;56.90
57628;BME280;43451;49.060;10.616;2022-07-04T09:35:18;97001.03;;;23.10;55.08
57628;BME280;43451;49.060;10.616;2022-07-04T09:37:49;97006.28;;;23.08;54.78
57628;BME280;43451;49.060;10.616;2022-07-04T09:42:53;97009.63;;;23.22;53.77
57628;BME280;43451;49.060;10.616;2022-07-04T09:45:19;97012.31;;;23.31;50.93
57628;BME280;43451;49.060;10.616;2022-07-04T09:47:46;97009.25;;;23.38;52.69
57628;BME280;43451;49.060;10.616;2022-07-04T09:50:13;97014.44;;;23.45;53.18
57628;BME280;43451;49.060;10.616;2022-07-04T09:53:01;97021.22;;;23.44;52.42
57628;BME280;43451;49.060;10.616;2022-07-04T09:55:32;97018.50;;;23.59;54.44
57628;BME280;43451;49.060;10.616;2022-07-04T09:58:02;97015.84;;;24.13;49.60
57628;BME280;43451;49.060;10.616;2022-07-04T10:00:31;97014.72;;;24.19;51.85
57628;BME280;43451;49.060;10.616;2022-07-04T10:03:28;97019.53;;;24.33;50.39
57628;BME280;43451;49.060;10.616;2022-07-04T10:06:05;97018.28;;;24.59;48.42
57628;BME280;43451;49.060;10.616;2022-07-04T10:08:31;97023.44;;;24.66;47.35
57628;BME280;43451;49.060;10.616;2022-07-04T10:10:58;97018.91;;;24.83;47.04
57628;BME280;43451;49.060;10.616;2022-07-04T10:13:24;97021.03;;;24.88;47.79
57628;BME280;43451;49.060;10.616;2022-07-04T10:15:50;97033.69;;;25.04;50.01
57628;BME280;43451;49.060;10.616;2022-07-04T10:18:18;97015.38;;;24.97;47.62
57628;BME280;43451;49.060;10.616;2022-07-04T10:20:45;97020.63;;;25.10;46.49
57628;BME280;43451;49.060;10.616;2022-07-04T10:23:11;97036.25;;;25.08;48.53
57628;BME280;43451;49.060;10.616;2022-07-04T10:25:37;97038.19;;;25.01;47.65
57628;BME280;43451;49.060;10.616;2022-07-04T10:28:03;97044.81;;;24.89;44.83
57628;BME280;43451;49.060;10.616;2022-07-04T10:30:31;97051.53;;;24.68;47.60
57628;BME280;43451;49.060;10.616;2022-07-04T10:33:00;97067.31;;;24.76;48.09
57628;BME280;43451;49.060;10.616;2022-07-04T10:35:49;97052.41;;;24.74;49.63
57628;BME280;43451;49.060;10.616;2022-07-04T10:38:18;97046.25;;;24.85;47.14
57628;BME280;43451;49.060;10.616;2022-07-04T10:40:54;97045.66;;;24.95;47.09
57628;BME280;43451;49.060;10.616;2022-07-04T10:48:31;97037.03;;;25.08;48.91
57628;BME280;43451;49.060;10.616;2022-07-04T10:51:07;97022.47;;;24.98;48.89
57628;BME280;43451;49.060;10.616;2022-07-04T10:53:59;97022.66;;;24.95;48.79
57628;BME280;43451;49.060;10.616;2022-07-04T10:58:50;97020.44;;;24.99;50.27
57628;BME280;43451;49.060;10.616;2022-07-04T11:01:17;97014.97;;;25.05;49.08
57628;BME280;43451;49.060;10.616;2022-07-04T11:03:51;97024.28;;;25.31;46.40
57628;BME280;43451;49.060;10.616;2022-07-04T11:09:17;97017.75;;;25.34;46.88
57628;BME280;43451;49.060;10.616;2022-07-04T11:11:59;97017.38;;;25.27;46.85
57628;BME280;43451;49.060;10.616;2022-07-04T11:14:43;97007.41;;;25.20;49.51
57628;BME280;43451;49.060;10.616;2022-07-04T11:17:28;97005.22;;;25.09;46.44
57628;BME280;43451;49.060;10.616;2022-07-04T11:20:05;97011.16;;;25.17;47.91
57628;BME280;43451;49.060;10.616;2022-07-04T11:22:32;97006.72;;;25.10;50.19
57628;BME280;43451;49.060;10.616;2022-07-04T11:24:58;97004.81;;;25.01;49.65
57628;BME280;43451;49.060;10.616;2022-07-04T11:27:24;96995.06;;;25.06;48.39
57628;BME280;43451;49.060;10.616;2022-07-04T11:29:53;96990.53;;;25.09;48.80
57628;BME280;43451;49.060;10.616;2022-07-04T11:32:20;96997.63;;;25.10;51.40
57628;BME280;43451;49.060;10.616;2022-07-04T11:34:46;96983.59;;;25.34;50.40
57628;BME280;43451;49.060;10.616;2022-07-04T11:37:12;96995.03;;;25.21;49.81
57628;BME280;43451;49.060;10.616;2022-07-04T11:39:38;96991.94;;;25.34;48.02
57628;BME280;43451;49.060;10.616;2022-07-04T11:42:04;96983.69;;;25.24;48.04
57628;BME280;43451;49.060;10.616;2022-07-04T11:44:48;96978.94;;;25.25;48.84
57628;BME280;43451;49.060;10.616;2022-07-04T11:50:05;96982.94;;;25.24;48.93
57628;BME280;43451;49.060;10.616;2022-07-04T11:55:05;96976.28;;;25.36;48.76
57628;BME280;43451;49.060;10.616;2022-07-04T11:57:41;96972.13;;;25.46;48.29
57628;BME280;43451;49.060;10.616;2022-07-04T12:02:36;96967.91;;;25.51;49.61
57628;BME280;43451;49.060;10.616;2022-07-04T12:05:07;96965.00;;;25.60;48.57
57628;BME280;43451;49.060;10.616;2022-07-04T12:07:35;96969.94;;;25.51;50.14
57628;BME280;43451;49.060;10.616;2022-07-04T12:15:23;96957.22;;;25.85;49.37
57628;BME280;43451;49.060;10.616;2022-07-04T12:17:51;96964.88;;;25.90;47.80
57628;BME280;43451;49.060;10.616;2022-07-04T12:20:17;96955.41;;;25.82;47.22
57628;BME280;43451;49.060;10.616;2022-07-04T12:22:56;96947.22;;;25.78;47.19
57628;BME280;43451;49.060;10.616;2022-07-04T12:25:31;96951.56;;;25.79;48.07
57628;BME280;43451;49.060;10.616;2022-07-04T12:28:04;96944.41;;;25.93;47.89
57628;BME280;43451;49.060;10.616;2022-07-04T12:30:33;96936.94;;;26.05;49.28
57628;BME280;43451;49.060;10.616;2022-07-04T12:33:03;96937.38;;;26.24;50.29
57628;BME280;43451;49.060;10.616;2022-07-04T12:35:54;96928.19;;;26.44;47.02
57628;BME280;43451;49.060;10.616;2022-07-04T12:43:20;96913.38;;;26.32;49.27
57628;BME280;43451;49.060;10.616;2022-07-04T12:45:53;96909.09;;;26.31;47.70
57628;BME280;43451;49.060;10.616;2022-07-04T12:48:27;96906.88;;;26.40;49.17
57628;BME280;43451;49.060;10.616;2022-07-04T12:51:09;96910.72;;;26.43;46.73
57628;BME280;43451;49.060;10.616;2022-07-04T12:53:39;96904.03;;;26.35;44.20
57628;BME280;43451;49.060;10.616;2022-07-04T12:56:05;96905.59;;;26.36;46.07
57628;BME280;43451;49.060;10.616;2022-07-04T12:58:31;96905.78;;;26.32;44.48
57628;BME280;43451;49.060;10.616;2022-07-04T13:00:56;96902.75;;;26.30;45.36
57628;BME280;43451;49.060;10.616;2022-07-04T13:03:22;96899.16;;;26.24;47.74
57628;BME280;43451;49.060;10.616;2022-07-04T13:05:48;96892.47;;;26.16;45.30
57628;BME280;43451;49.060;10.616;2022-07-04T13:08:14;96887.47;;;26.20;46.79
57628;BME280;43451;49.060;10.616;2022-07-04T13:10:40;96900.78;;;26.36;46.65
57628;BME280;43451;49.060;10.616;2022-07-04T13:13:05;96887.31;;;26.35;42.89
57628;BME280;43451;49.060;10.616;2022-07-04T13:15:31;96885.06;;;26.33;43.29
57628;BME280;43451;49.060;10.616;2022-07-04T13:17:56;96884.94;;;26.22;42.94
57628;BME280;43451;49.060;10.616;2022-07-04T13:20:22;96880.63;;;26.21;44.90
57628;BME280;43451;49.060;10.616;2022-07-04T13:22:48;96876.28;;;26.14;43.97
57628;BME280;43451;49.060;10.616;2022-07-04T13:25:13;96862.47;;;26.31;43.23